Time;durP1;ratioP1;P1;durP2;ratioP2;P2;SDS_P1;SDS_P2;PMS_P1;PMS_P2;Temp;Humidity;BMP_temperature;BMP_pressure;BME280_temperature;BME280_humidity;BME280_pressure;Samples;Min_cycle;Max_cycle;Signal;HPM_P1;HPM_P2
2020/12/22 00:00:21;;;;;;;17.58;9.90;;;7.80;95.00;;;;;;5030030;28;20058;-69
2020/12/22 00:02:48;;;;;;;19.63;10.23;;;7.80;95.00;;;;;;5020533;28;20022;-69
2020/12/22 00:05:15;;;;;;;15.88;9.63;;;7.90;95.10;;;;;;5032756;28;20044;-69
2020/12/22 00:07:41;;;;;;;15.55;10.43;;;7.90;95.10;;;;;;5030041;28;20432;-68
2020/12/22 00:10:09;;;;;;;18.67;10.35;;;7.90;95.00;;;;;;5033062;28;20112;-69
2020/12/22 00:12:38;;;;;;;18.55;10.27;;;7.90;95.00;;;;;;5015685;28;20045;-69
2020/12/22 00:15:05;;;;;;;18.15;10.55;;;7.90;95.00;;;;;;5032522;28;20033;-69
2020/12/22 00:17:30;;;;;;;17.90;10.50;;;7.90;95.00;;;;;;5032978;28;20033;-69
2020/12/22 00:19:56;;;;;;;16.17;10.35;;;7.90;95.00;;;;;;5032720;28;20022;-69
2020/12/22 00:22:21;;;;;;;15.00;9.48;;;7.90;95.00;;;;;;5022656;28;20021;-69
2020/12/22 00:24:47;;;;;;;17.65;10.60;;;7.90;95.00;;;;;;5032549;28;20477;-69
2020/12/22 00:27:12;;;;;;;18.90;10.35;;;8.00;95.00;;;;;;5031917;28;20025;-69
2020/12/22 00:29:38;;;;;;;17.08;9.65;;;8.00;95.00;;;;;;5044875;28;20036;-69
2020/12/22 00:32:03;;;;;;;18.75;11.20;;;8.00;95.00;;;;;;5024695;28;20113;-69
2020/12/22 00:34:30;;;;;;;19.33;10.93;;;8.00;95.00;;;;;;5013590;28;20073;-69
2020/12/22 00:36:56;;;;;;;15.63;10.00;;;8.10;94.90;;;;;;5012039;28;20022;-69
2020/12/22 00:39:22;;;;;;;16.25;9.95;;;8.10;95.00;;;;;;5020052;28;20394;-69
2020/12/22 00:41:54;;;;;;;19.00;11.27;;;8.10;94.90;;;;;;5012311;28;20030;-68
2020/12/22 00:44:20;;;;;;;18.10;10.90;;;8.10;94.90;;;;;;5023689;28;20308;-69
2020/12/22 00:46:45;;;;;;;18.25;10.52;;;8.10;94.90;;;;;;5012087;28;20026;-69
2020/12/22 00:49:11;;;;;;;19.15;10.15;;;8.10;94.80;;;;;;5026131;28;20037;-69
2020/12/22 00:51:36;;;;;;;16.83;10.30;;;8.20;94.80;;;;;;5032125;28;20389;-69
2020/12/22 00:54:02;;;;;;;17.80;10.93;;;8.20;94.80;;;;;;5030170;28;20041;-69
2020/12/22 00:56:27;;;;;;;20.10;10.05;;;8.20;94.80;;;;;;5012291;28;20022;-69
2020/12/22 00:58:53;;;;;;;18.48;9.80;;;8.20;94.80;;;;;;5024123;28;20113;-68
2020/12/22 01:01:18;;;;;;;16.63;10.18;;;8.20;94.80;;;;;;5042898;28;20409;-69
2020/12/22 01:03:45;;;;;;;18.65;10.57;;;8.20;94.80;;;;;;5036218;28;20036;-69
2020/12/22 01:06:11;;;;;;;16.60;9.93;;;8.20;94.80;;;;;;5012246;28;20049;-69
2020/12/22 01:08:36;;;;;;;17.25;10.27;;;8.20;95.00;;;;;;5020624;28;20037;-68
2020/12/22 01:11:02;;;;;;;18.00;11.40;;;8.20;94.80;;;;;;5031176;28;20382;-68
2020/12/22 01:13:27;;;;;;;17.77;10.63;;;8.20;94.80;;;;;;5035168;28;20040;-68
2020/12/22 01:15:52;;;;;;;20.67;11.90;;;8.20;94.80;;;;;;5051223;28;20028;-68
2020/12/22 01:18:18;;;;;;;17.55;11.43;;;8.20;94.80;;;;;;5034244;28;20095;-68
2020/12/22 01:20:43;;;;;;;16.63;11.25;;;8.20;94.80;;;;;;5031533;28;20583;-68
2020/12/22 01:23:09;;;;;;;17.65;10.82;;;8.20;94.80;;;;;;5031716;28;20021;-68
2020/12/22 01:25:34;;;;;;;20.33;11.55;;;8.20;94.70;;;;;;5051434;28;20481;-69
2020/12/22 01:28:00;;;;;;;17.85;11.15;;;8.20;94.70;;;;;;5020536;28;20100;-68
2020/12/22 01:30:25;;;;;;;18.98;10.90;;;8.20;94.70;;;;;;5031257;28;20044;-68
2020/12/22 01:32:51;;;;;;;18.35;11.35;;;8.20;94.80;;;;;;5023762;28;20361;-68
2020/12/22 01:35:17;;;;;;;21.05;11.57;;;8.20;94.70;;;;;;5028554;28;20022;-68
2020/12/22 01:37:42;;;;;;;17.80;10.93;;;8.30;94.80;;;;;;5029944;28;20033;-68
2020/12/22 01:40:08;;;;;;;17.42;10.77;;;8.30;94.80;;;;;;5028332;28;20032;-68
2020/12/22 01:42:33;;;;;;;17.65;11.32;;;8.30;95.00;;;;;;5031322;28;20025;-69
2020/12/22 01:44:59;;;;;;;19.95;10.65;;;8.30;94.80;;;;;;4994193;28;20206;-69
2020/12/22 01:47:25;;;;;;;20.45;11.27;;;8.40;94.80;;;;;;5011693;28;20052;-68
2020/12/22 01:49:51;;;;;;;16.88;10.52;;;8.40;94.80;;;;;;5010158;28;20036;-69
2020/12/22 01:52:17;;;;;;;17.50;10.90;;;8.40;94.80;;;;;;5031524;28;20025;-69
2020/12/22 01:54:42;;;;;;;20.13;11.05;;;8.40;94.70;;;;;;5021561;28;20044;-69
2020/12/22 01:57:14;;;;;;;17.52;10.77;;;8.40;94.70;;;;;;5011881;28;20021;-69
2020/12/22 01:59:39;;;;;;;17.13;10.68;;;8.40;94.60;;;;;;5027227;28;20384;-69
2020/12/22 02:02:05;;;;;;;18.98;11.05;;;8.50;94.60;;;;;;5030210;28;20026;-68
2020/12/22 02:04:32;;;;;;;18.65;10.88;;;8.50;94.60;;;;;;5035224;28;20025;-68
2020/12/22 02:06:58;;;;;;;15.60;10.15;;;8.50;94.60;;;;;;5046655;28;20607;-68
2020/12/22 02:09:24;;;;;;;17.60;10.68;;;8.50;94.60;;;;;;5035248;28;20041;-69
2020/12/22 02:11:50;;;;;;;19.42;10.98;;;8.60;94.60;;;;;;5030621;28;20022;-69
2020/12/22 02:14:15;;;;;;;17.95;10.88;;;8.50;94.50;;;;;;5026080;28;20061;-69
2020/12/22 02:16:41;;;;;;;19.20;11.13;;;8.60;94.60;;;;;;5028231;28;20053;-69
2020/12/22 02:19:06;;;;;;;18.42;12.13;;;8.60;94.50;;;;;;5025639;28;20112;-69
2020/12/22 02:21:32;;;;;;;17.35;10.50;;;8.60;94.60;;;;;;5030817;28;20037;-69
2020/12/22 02:23:57;;;;;;;18.42;10.77;;;8.60;94.70;;;;;;5026697;28;20063;-69
2020/12/22 02:26:24;;;;;;;21.50;12.05;;;8.60;94.80;;;;;;5034819;28;20029;-69
2020/12/22 02:28:51;;;;;;;20.65;11.75;;;8.60;94.90;;;;;;5031779;28;20052;-69
2020/12/22 02:31:18;;;;;;;20.20;11.65;;;8.60;95.00;;;;;;5047697;28;20052;-69
2020/12/22 02:33:44;;;;;;;22.33;12.38;;;8.60;95.10;;;;;;5038752;28;20426;-69
2020/12/22 02:36:11;;;;;;;16.05;11.30;;;8.60;95.20;;;;;;5033837;28;20038;-69
2020/12/22 02:38:37;;;;;;;20.50;11.50;;;8.60;95.30;;;;;;5033422;28;20057;-69
2020/12/22 02:41:04;;;;;;;19.60;11.68;;;8.60;95.30;;;;;;5032823;28;20056;-69
2020/12/22 02:43:29;;;;;;;18.08;10.55;;;8.60;95.40;;;;;;5014163;28;20037;-69
2020/12/22 02:45:55;;;;;;;18.80;11.50;;;8.60;95.40;;;;;;5049096;28;20469;-69
2020/12/22 02:48:20;;;;;;;19.50;12.32;;;8.60;95.50;;;;;;5015254;28;20061;-69
2020/12/22 02:50:46;;;;;;;20.65;11.95;;;8.70;95.60;;;;;;5032017;28;20462;-69
2020/12/22 02:53:11;;;;;;;19.55;10.75;;;8.60;95.80;;;;;;5033206;28;20053;-69
2020/12/22 02:55:37;;;;;;;17.02;11.05;;;8.60;95.90;;;;;;5033315;28;20303;-69
2020/12/22 02:58:02;;;;;;;19.77;11.57;;;8.60;96.00;;;;;;5017975;28;20160;-69
2020/12/22 03:00:28;;;;;;;20.35;11.55;;;8.60;96.10;;;;;;5039069;28;20032;-69
2020/12/22 03:02:53;;;;;;;19.83;11.43;;;8.60;96.20;;;;;;5043011;28;20178;-69
2020/12/22 03:05:19;;;;;;;20.70;12.27;;;8.60;96.20;;;;;;5037979;28;20189;-69
2020/12/22 03:07:45;;;;;;;18.83;12.30;;;8.60;96.30;;;;;;5034325;28;20458;-69
2020/12/22 03:10:13;;;;;;;20.73;12.10;;;8.60;96.40;;;;;;5023048;28;20532;-69
2020/12/22 03:12:39;;;;;;;19.73;12.38;;;8.60;96.50;;;;;;5013652;28;20038;-69
2020/12/22 03:15:06;;;;;;;20.77;11.40;;;8.60;96.60;;;;;;5023952;28;20029;-68
2020/12/22 03:17:32;;;;;;;19.75;11.57;;;8.60;96.70;;;;;;5047791;28;20028;-69
2020/12/22 03:19:57;;;;;;;20.92;12.88;;;8.60;96.90;;;;;;5034940;28;20073;-69
2020/12/22 03:22:23;;;;;;;21.13;13.40;;;8.60;97.00;;;;;;5019565;28;20173;-69
2020/12/22 03:24:48;;;;;;;23.25;12.40;;;8.60;97.10;;;;;;5042636;28;20026;-68
2020/12/22 03:27:14;;;;;;;23.27;12.98;;;8.60;97.20;;;;;;5031708;28;20034;-69
2020/12/22 03:29:39;;;;;;;20.60;12.32;;;8.60;97.30;;;;;;5038396;28;20029;-69
2020/12/22 03:32:05;;;;;;;19.52;11.88;;;8.60;97.40;;;;;;5013569;28;20026;-69
2020/12/22 03:34:30;;;;;;;20.25;11.57;;;8.60;97.40;;;;;;5028520;28;20489;-69
2020/12/22 03:36:57;;;;;;;24.90;12.73;;;8.70;97.50;;;;;;5013333;28;20030;-68
2020/12/22 03:39:22;;;;;;;19.90;11.50;;;8.70;97.60;;;;;;5017162;28;20038;-69
2020/12/22 03:41:48;;;;;;;20.40;11.80;;;8.60;97.70;;;;;;5013221;28;20030;-69
2020/12/22 03:44:13;;;;;;;21.13;11.93;;;8.70;97.90;;;;;;5016530;28;20040;-69
2020/12/22 03:46:40;;;;;;;19.90;11.68;;;8.60;97.90;;;;;;5032825;28;20527;-69
2020/12/22 03:49:05;;;;;;;20.20;12.65;;;8.70;98.00;;;;;;5014577;28;20542;-69
2020/12/22 03:51:31;;;;;;;21.75;12.32;;;8.70;98.10;;;;;;5014428;28;20044;-69
2020/12/22 03:53:56;;;;;;;19.23;11.50;;;8.70;98.10;;;;;;5012810;28;20054;-69
2020/12/22 03:56:22;;;;;;;19.23;10.68;;;8.70;98.20;;;;;;5015125;28;20492;-69
2020/12/22 03:58:47;;;;;;;20.65;11.90;;;8.70;98.30;;;;;;5007897;28;20026;-69
2020/12/22 04:01:13;;;;;;;19.17;11.85;;;8.70;98.30;;;;;;5045191;28;20432;-69
2020/12/22 04:03:39;;;;;;;19.85;11.32;;;8.70;98.50;;;;;;5025844;28;20045;-69
2020/12/22 04:06:05;;;;;;;24.23;13.20;;;8.70;98.60;;;;;;5010595;28;20040;-69
2020/12/22 04:08:30;;;;;;;17.13;11.55;;;8.70;98.60;;;;;;5013221;28;20048;-68
2020/12/22 04:10:55;;;;;;;20.20;11.15;;;8.70;98.60;;;;;;5028138;28;20079;-69
2020/12/22 04:13:21;;;;;;;20.05;11.52;;;8.80;98.70;;;;;;5029045;28;20033;-69
2020/12/22 04:15:46;;;;;;;18.38;11.25;;;8.80;98.70;;;;;;5037719;28;20033;-69
2020/12/22 04:18:12;;;;;;;20.00;11.85;;;8.80;98.70;;;;;;5041019;28;20045;-69
2020/12/22 04:20:37;;;;;;;17.25;11.15;;;8.80;98.80;;;;;;5025717;28;20406;-69
2020/12/22 04:23:03;;;;;;;19.45;11.65;;;8.80;98.80;;;;;;5031344;28;20033;-69
2020/12/22 04:25:29;;;;;;;19.13;11.55;;;8.80;98.90;;;;;;5031103;28;20392;-69
2020/12/22 04:27:54;;;;;;;18.63;10.88;;;8.80;99.00;;;;;;5016005;28;20095;-69
2020/12/22 04:30:20;;;;;;;21.23;11.68;;;8.80;99.00;;;;;;5019608;28;20030;-69
2020/12/22 04:32:45;;;;;;;19.48;11.35;;;8.80;99.00;;;;;;5021701;28;20033;-69
2020/12/22 04:35:11;;;;;;;19.33;12.07;;;8.80;99.10;;;;;;5031214;28;20394;-69
2020/12/22 04:37:37;;;;;;;19.08;10.88;;;8.80;99.10;;;;;;5017819;28;20022;-68
2020/12/22 04:40:03;;;;;;;18.60;11.02;;;8.80;99.20;;;;;;5022777;28;20389;-68
2020/12/22 04:42:32;;;;;;;17.58;10.20;;;8.80;99.20;;;;;;5024564;28;20022;-69
2020/12/22 04:44:58;;;;;;;19.45;11.27;;;8.90;99.30;;;;;;5021597;28;20508;-69
2020/12/22 04:47:25;;;;;;;18.90;11.23;;;8.90;99.40;;;;;;5026337;28;20028;-68
2020/12/22 04:49:53;;;;;;;21.88;12.57;;;8.90;99.40;;;;;;5018303;28;20040;-68
2020/12/22 04:52:21;;;;;;;18.65;11.00;;;8.90;99.50;;;;;;5052425;28;20025;-68
2020/12/22 04:54:47;;;;;;;18.70;11.10;;;8.90;99.50;;;;;;5042150;28;20085;-69
2020/12/22 04:57:15;;;;;;;16.95;10.18;;;8.90;99.50;;;;;;5015142;28;20056;-68
2020/12/22 04:59:43;;;;;;;16.42;10.38;;;8.90;99.60;;;;;;5043508;28;20037;-69
2020/12/22 05:02:10;;;;;;;17.83;10.40;;;8.90;99.60;;;;;;5031611;28;20119;-68
2020/12/22 05:04:38;;;;;;;17.00;10.00;;;9.00;99.70;;;;;;5037988;28;20029;-68
2020/12/22 05:07:08;;;;;;;17.73;9.77;;;9.00;99.70;;;;;;5011859;28;20038;-69
2020/12/22 05:09:33;;;;;;;17.13;10.10;;;9.00;99.70;;;;;;5014098;28;20072;-69
2020/12/22 05:11:59;;;;;;;16.38;9.77;;;9.00;99.70;;;;;;5031572;28;20437;-69
2020/12/22 05:14:26;;;;;;;15.27;9.00;;;9.10;99.80;;;;;;5029290;28;20126;-69
2020/12/22 05:16:51;;;;;;;17.05;9.82;;;9.10;99.80;;;;;;5044641;28;20355;-69
2020/12/22 05:19:18;;;;;;;14.32;9.07;;;9.10;99.80;;;;;;5047390;28;20104;-69
2020/12/22 05:21:44;;;;;;;14.45;9.15;;;9.10;99.80;;;;;;5030939;28;20025;-69
2020/12/22 05:24:12;;;;;;;14.90;9.02;;;9.20;99.90;;;;;;5013399;28;20095;-69
2020/12/22 05:26:40;;;;;;;16.00;8.32;;;9.20;99.90;;;;;;5012623;28;20108;-69
2020/12/22 05:29:14;;;;;;;12.95;8.20;;;9.20;99.90;;;;;;5028696;28;20410;-69
2020/12/22 05:31:44;;;;;;;15.88;8.73;;;9.20;99.90;;;;;;5045443;28;20037;-69
2020/12/22 05:34:11;;;;;;;15.60;8.68;;;9.30;99.90;;;;;;5033213;28;20766;-68
2020/12/22 05:36:39;;;;;;;14.02;8.65;;;9.30;99.90;;;;;;5029989;28;20029;-68
2020/12/22 05:39:09;;;;;;;15.13;8.65;;;9.30;99.90;;;;;;5030479;28;20060;-68
2020/12/22 05:41:35;;;;;;;16.80;9.20;;;9.40;99.90;;;;;;5030158;28;20061;-68
2020/12/22 05:44:01;;;;;;;13.90;8.48;;;9.40;99.90;;;;;;5018835;28;20052;-67
2020/12/22 05:46:32;;;;;;;14.90;8.88;;;9.50;99.90;;;;;;5010095;28;20167;-67
2020/12/22 05:49:08;;;;;;;13.60;7.65;;;9.50;99.90;;;;;;5033018;28;20040;-67
2020/12/22 05:51:34;;;;;;;12.05;7.70;;;9.50;99.90;;;;;;5015136;28;20033;-67
2020/12/22 05:54:06;;;;;;;13.15;8.65;;;9.50;99.90;;;;;;5010918;28;20045;-67
2020/12/22 05:56:32;;;;;;;11.68;7.75;;;9.50;99.90;;;;;;5030400;28;20120;-67
2020/12/22 05:58:58;;;;;;;11.80;7.45;;;9.60;99.90;;;;;;5032301;28;20484;-68
2020/12/22 06:01:31;;;;;;;14.98;8.05;;;9.60;99.90;;;;;;5033620;28;20168;-68
2020/12/22 06:04:02;;;;;;;12.90;8.20;;;9.60;99.90;;;;;;5020000;28;20037;-68
2020/12/22 06:06:31;;;;;;;12.27;7.72;;;9.70;99.90;;;;;;5043746;28;20037;-68
2020/12/22 06:08:57;;;;;;;10.90;7.03;;;9.70;99.90;;;;;;5025263;28;20034;-68
2020/12/22 06:11:23;;;;;;;12.15;7.65;;;9.70;99.90;;;;;;5022587;28;20018;-68
2020/12/22 06:13:49;;;;;;;16.00;7.72;;;9.70;99.90;;;;;;5047336;28;20047;-67
2020/12/22 06:16:20;;;;;;;10.77;6.45;;;9.80;99.90;;;;;;5030737;28;20022;-68
2020/12/22 06:18:50;;;;;;;11.60;7.30;;;9.80;99.90;;;;;;4997650;28;20348;-68
2020/12/22 06:21:20;;;;;;;10.68;6.88;;;9.80;99.90;;;;;;5028151;28;20564;-68
2020/12/22 06:23:46;;;;;;;10.15;6.68;;;9.90;99.90;;;;;;5046529;28;20068;-68
2020/12/22 06:26:13;;;;;;;10.65;6.72;;;9.90;99.90;;;;;;5038474;28;20031;-68
2020/12/22 06:28:39;;;;;;;10.20;6.20;;;9.90;99.90;;;;;;5033478;28;20887;-68
2020/12/22 06:31:15;;;;;;;10.73;6.38;;;9.90;99.90;;;;;;5021832;28;20028;-68
2020/12/22 06:33:41;;;;;;;10.07;6.03;;;10.00;99.90;;;;;;5034209;28;20084;-68
2020/12/22 06:36:10;;;;;;;10.63;6.75;;;10.00;99.90;;;;;;5027434;28;20030;-67
2020/12/22 06:38:46;;;;;;;8.48;5.65;;;10.00;99.90;;;;;;5014606;28;20154;-68
2020/12/22 06:41:23;;;;;;;9.57;5.90;;;10.00;99.90;;;;;;5025998;28;20033;-68
2020/12/22 06:43:49;;;;;;;8.40;5.75;;;10.00;99.90;;;;;;5033939;28;20038;-68
2020/12/22 06:46:33;;;;;;;10.05;5.97;;;10.10;99.90;;;;;;5027730;28;20201;-68
2020/12/22 06:49:00;;;;;;;9.70;5.93;;;10.10;99.90;;;;;;5033768;28;20037;-68
2020/12/22 06:51:34;;;;;;;11.20;6.53;;;10.10;99.90;;;;;;5032873;28;20091;-68
2020/12/22 06:54:02;;;;;;;9.25;5.57;;;10.10;99.90;;;;;;5030183;28;20062;-69
2020/12/22 06:56:47;;;;;;;8.57;5.35;;;10.20;99.90;;;;;;5039092;28;20033;-68
2020/12/22 06:59:39;;;;;;;8.80;5.18;;;10.20;99.90;;;;;;5044136;28;20030;-68
2020/12/22 07:02:05;;;;;;;8.70;5.30;;;10.30;99.90;;;;;;5032997;28;20032;-68
2020/12/22 07:04:39;;;;;;;7.15;4.97;;;10.30;99.90;;;;;;5034112;28;20025;-68
2020/12/22 07:07:05;;;;;;;6.60;4.45;;;10.30;99.90;;;;;;5047755;28;20033;-68
2020/12/22 07:09:35;;;;;;;7.38;4.55;;;10.40;99.90;;;;;;5025294;28;20437;-69
2020/12/22 07:12:09;;;;;;;6.65;4.18;;;10.40;99.90;;;;;;5034041;28;20389;-69
2020/12/22 07:14:39;;;;;;;;;;;10.40;99.90;;;;;;5034251;28;20045;-68
2020/12/22 07:17:05;;;;;;;7.05;4.45;;;10.50;99.90;;;;;;5032115;28;19909;-69
2020/12/22 07:19:32;;;;;;;4.95;3.45;;;10.50;99.90;;;;;;5033286;28;20105;-68
2020/12/22 07:22:05;;;;;;;8.60;4.43;;;10.40;99.90;;;;;;5034097;28;20036;-67
2020/12/22 07:24:36;;;;;;;6.88;3.90;;;10.50;99.90;;;;;;5023529;28;20132;-69
2020/12/22 07:27:03;;;;;;;6.25;4.00;;;10.60;99.90;;;;;;5040364;28;20048;-69
2020/12/22 07:29:28;;;;;;;7.28;3.92;;;10.60;99.90;;;;;;5031521;28;20458;-67
2020/12/22 07:31:54;;;;;;;5.93;4.00;;;10.70;99.90;;;;;;5044919;28;20131;-68
2020/12/22 07:34:20;;;;;;;5.00;3.55;;;10.70;99.90;;;;;;5034655;28;20045;-68
2020/12/22 07:36:47;;;;;;;4.57;3.20;;;10.80;99.90;;;;;;5032906;28;20116;-67
2020/12/22 07:39:18;;;;;;;6.18;4.15;;;10.90;99.90;;;;;;5013794;28;20026;-66
2020/12/22 07:41:45;;;;;;;5.03;3.50;;;10.90;99.90;;;;;;5028563;28;20108;-66
2020/12/22 07:44:19;;;;;;;5.50;3.90;;;10.90;99.90;;;;;;5013898;28;20033;-66
2020/12/22 07:46:46;;;;;;;4.53;3.13;;;11.00;99.90;;;;;;4996186;28;20034;-67
2020/12/22 07:49:13;;;;;;;5.47;3.47;;;11.00;99.90;;;;;;5013967;28;20037;-67
2020/12/22 07:51:43;;;;;;;5.00;3.50;;;11.00;99.90;;;;;;5030328;28;20038;-66
2020/12/22 07:54:10;;;;;;;5.15;3.40;;;11.10;99.90;;;;;;5013311;28;20449;-66
2020/12/22 07:56:38;;;;;;;6.97;2.80;;;11.10;99.90;;;;;;5024522;28;20481;-67
2020/12/22 07:59:06;;;;;;;4.03;2.75;;;11.20;99.90;;;;;;5024472;28;20068;-66
2020/12/22 08:01:38;;;;;;;4.05;2.47;;;11.20;99.90;;;;;;5035454;28;20025;-66
2020/12/22 08:04:11;;;;;;;5.15;2.78;;;11.20;99.90;;;;;;5044033;28;20033;-66
2020/12/22 08:06:37;;;;;;;4.75;2.50;;;11.30;99.90;;;;;;5032883;28;20029;-65
2020/12/22 08:09:03;;;;;;;5.25;2.58;;;11.30;99.90;;;;;;5046968;28;20388;-65
2020/12/22 08:11:29;;;;;;;4.50;2.40;;;11.30;99.90;;;;;;5025959;28;20111;-66
2020/12/22 08:13:55;;;;;;;4.97;2.45;;;11.40;99.90;;;;;;5029668;28;20033;-66
2020/12/22 08:16:21;;;;;;;3.30;2.13;;;11.40;99.90;;;;;;5030126;28;20377;-66
2020/12/22 08:18:48;;;;;;;5.35;2.10;;;11.40;99.90;;;;;;5049696;28;20036;-67
2020/12/22 08:21:17;;;;;;;2.88;2.05;;;11.50;99.90;;;;;;5018942;28;20157;-66
2020/12/22 08:23:43;;;;;;;3.28;2.00;;;11.50;99.90;;;;;;5009817;28;20033;-68
2020/12/22 08:26:10;;;;;;;3.08;2.00;;;11.60;99.90;;;;;;5030548;28;20025;-67
2020/12/22 08:28:36;;;;;;;8.30;3.78;;;11.60;99.90;;;;;;5029367;28;20040;-68
2020/12/22 08:31:11;;;;;;;2.83;2.03;;;11.70;99.90;;;;;;5038408;28;20029;-66
2020/12/22 08:33:40;;;;;;;2.78;1.83;;;11.70;99.90;;;;;;5038211;28;20347;-67
2020/12/22 08:36:09;;;;;;;3.83;2.20;;;11.70;99.90;;;;;;5035255;28;20041;-67
2020/12/22 08:38:35;;;;;;;3.17;2.05;;;11.70;99.90;;;;;;5048272;28;20029;-67
2020/12/22 08:41:13;;;;;;;3.20;1.92;;;11.80;99.90;;;;;;5044093;28;20028;-67
2020/12/22 08:43:50;;;;;;;4.15;2.45;;;11.80;99.90;;;;;;5029053;28;20044;-67
2020/12/22 08:46:16;;;;;;;3.45;1.60;;;11.90;99.90;;;;;;5040617;28;20052;-67
2020/12/22 08:48:42;;;;;;;3.00;1.98;;;11.90;99.90;;;;;;5042510;28;20405;-66
2020/12/22 08:51:08;;;;;;;2.63;1.90;;;11.90;99.90;;;;;;5043310;28;20029;-67
2020/12/22 08:53:35;;;;;;;3.13;1.98;;;12.00;99.90;;;;;;5023749;28;20045;-67
2020/12/22 08:56:10;;;;;;;2.28;1.55;;;12.00;99.90;;;;;;5044102;28;20041;-69
2020/12/22 08:58:51;;;;;;;3.03;1.65;;;12.10;99.90;;;;;;5013727;28;20509;-66
2020/12/22 09:01:18;;;;;;;2.65;1.52;;;12.10;99.90;;;;;;5020329;28;20025;-68
2020/12/22 09:03:52;;;;;;;4.43;1.90;;;12.10;99.90;;;;;;5019103;28;20422;-66
2020/12/22 09:06:18;;;;;;;4.68;2.90;;;12.10;99.90;;;;;;5024281;28;20036;-67
2020/12/22 09:08:46;;;;;;;3.03;1.80;;;12.10;99.90;;;;;;5051869;28;20500;-65
2020/12/22 09:11:20;;;;;;;4.57;2.45;;;12.20;99.90;;;;;;5025251;28;20025;-65
2020/12/22 09:13:56;;;;;;;;;;;12.20;99.90;;;;;;5032139;28;20509;-65
2020/12/22 09:16:22;;;;;;;2.38;1.50;;;12.30;99.90;;;;;;5033403;28;19915;-68
2020/12/22 09:18:48;;;;;;;2.88;1.60;;;12.20;99.90;;;;;;5038010;28;20029;-66
2020/12/22 09:21:13;;;;;;;3.28;1.45;;;12.30;99.90;;;;;;5031416;28;20024;-66
2020/12/22 09:23:45;;;;;;;2.47;1.40;;;12.30;99.90;;;;;;5034597;28;20033;-65
2020/12/22 09:26:10;;;;;;;2.00;1.33;;;12.40;99.90;;;;;;5041006;28;20026;-66
2020/12/22 09:28:36;;;;;;;3.42;1.20;;;12.50;99.90;;;;;;5031797;28;20512;-66
2020/12/22 09:31:01;;;;;;;2.45;1.40;;;12.50;99.90;;;;;;5038685;28;20029;-66
2020/12/22 09:33:27;;;;;;;1.35;1.05;;;12.60;99.90;;;;;;5048707;28;20397;-66
2020/12/22 09:35:52;;;;;;;1.65;1.27;;;12.60;99.90;;;;;;5026609;28;20039;-65
2020/12/22 09:38:18;;;;;;;2.17;1.30;;;12.60;99.90;;;;;;5031640;28;20424;-66
2020/12/22 09:40:43;;;;;;;1.50;1.20;;;12.70;99.90;;;;;;5025906;28;20061;-67
2020/12/22 09:43:09;;;;;;;1.70;1.10;;;12.70;99.90;;;;;;5049319;28;20051;-67
2020/12/22 09:45:34;;;;;;;2.22;1.48;;;12.80;99.90;;;;;;5026319;28;20067;-66
2020/12/22 09:48:00;;;;;;;7.03;2.47;;;12.80;99.90;;;;;;5031587;28;20033;-68
2020/12/22 09:50:25;;;;;;;2.65;1.48;;;12.80;99.90;;;;;;5032743;28;20393;-67
2020/12/22 09:52:50;;;;;;;3.22;1.52;;;12.90;99.90;;;;;;5011925;28;20022;-68
2020/12/22 09:55:16;;;;;;;2.30;1.20;;;12.90;99.90;;;;;;5011609;28;20076;-68
2020/12/22 09:57:42;;;;;;;1.75;1.20;;;12.90;99.90;;;;;;5029382;28;20049;-67
2020/12/22 10:00:07;;;;;;;2.78;1.50;;;13.00;99.90;;;;;;5015329;28;20026;-68
2020/12/22 10:02:33;;;;;;;2.38;1.10;;;13.00;99.90;;;;;;5038258;28;20571;-66
2020/12/22 10:04:58;;;;;;;2.13;1.25;;;13.00;99.90;;;;;;5022459;28;20045;-66
2020/12/22 10:07:24;;;;;;;2.72;1.30;;;13.00;99.90;;;;;;5026167;28;20104;-67
2020/12/22 10:09:49;;;;;;;3.08;1.30;;;13.00;99.90;;;;;;5031383;28;20037;-67
2020/12/22 10:12:15;;;;;;;1.65;1.27;;;13.10;99.90;;;;;;5044194;28;20060;-65
2020/12/22 10:14:40;;;;;;;4.35;1.52;;;13.10;99.90;;;;;;5026812;28;20030;-66
2020/12/22 10:17:07;;;;;;;2.05;1.20;;;13.10;99.90;;;;;;5023060;28;20436;-68
2020/12/22 10:19:32;;;;;;;1.58;1.15;;;13.10;99.90;;;;;;5035819;28;20117;-69
2020/12/22 10:21:57;;;;;;;1.60;1.10;;;13.20;99.90;;;;;;5035732;28;20029;-68
2020/12/22 10:24:23;;;;;;;2.33;1.23;;;13.10;99.90;;;;;;5042809;28;20036;-68
2020/12/22 10:26:48;;;;;;;1.77;0.95;;;13.20;99.90;;;;;;5037238;28;20026;-68
2020/12/22 10:29:14;;;;;;;1.73;1.05;;;13.20;99.90;;;;;;5033450;28;20466;-68
2020/12/22 10:31:39;;;;;;;1.05;0.95;;;13.20;99.90;;;;;;5035687;28;20036;-68
2020/12/22 10:34:05;;;;;;;7.07;1.77;;;13.30;99.90;;;;;;5034688;28;20037;-68
2020/12/22 10:36:30;;;;;;;1.45;0.90;;;13.30;99.90;;;;;;5037938;28;20057;-67
2020/12/22 10:38:56;;;;;;;2.90;1.20;;;13.30;99.90;;;;;;5033635;28;20378;-67
2020/12/22 10:41:23;;;;;;;1.50;1.00;;;13.30;99.90;;;;;;5037321;28;20021;-67
2020/12/22 10:43:50;;;;;;;2.92;1.02;;;13.30;99.90;;;;;;5031301;28;20026;-68
2020/12/22 10:46:15;;;;;;;1.35;0.90;;;13.30;99.90;;;;;;5032604;28;20052;-68
2020/12/22 10:48:43;;;;;;;1.60;1.00;;;13.30;99.90;;;;;;5028497;28;20049;-68
2020/12/22 10:51:09;;;;;;;1.98;1.30;;;13.40;99.90;;;;;;5029556;28;20449;-67
2020/12/22 10:53:34;;;;;;;1.42;1.08;;;13.40;99.90;;;;;;5026364;28;20095;-68
2020/12/22 10:56:02;;;;;;;1.48;1.00;;;13.50;99.90;;;;;;5039056;28;20060;-68
2020/12/22 10:58:28;;;;;;;2.17;1.52;;;13.50;99.90;;;;;;5046029;28;20052;-68
2020/12/22 11:00:53;;;;;;;3.67;1.40;;;13.50;99.90;;;;;;5037615;28;20386;-68
2020/12/22 11:03:20;;;;;;;2.83;1.60;;;13.50;99.90;;;;;;5040305;28;20038;-68
2020/12/22 11:06:10;;;;;;;2.28;1.20;;;13.50;99.90;;;;;;5034965;28;20139;-68
2020/12/22 11:08:39;;;;;;;14.60;2.17;;;13.50;99.90;;;;;;5033994;28;20037;-68
2020/12/22 11:11:05;;;;;;;2.58;1.08;;;13.60;99.90;;;;;;5041792;28;20082;-68
2020/12/22 11:13:31;;;;;;;1.90;1.20;;;13.60;99.90;;;;;;5029595;28;20045;-68
2020/12/22 11:15:57;;;;;;;1.70;1.20;;;13.60;99.90;;;;;;5048353;28;20477;-68
2020/12/22 11:18:23;;;;;;;2.15;1.20;;;13.70;99.90;;;;;;5018445;28;20450;-68
2020/12/22 11:20:48;;;;;;;2.47;1.30;;;13.70;99.90;;;;;;5040303;28;20108;-68
2020/12/22 11:23:14;;;;;;;2.30;1.38;;;13.70;99.90;;;;;;5030833;28;20067;-68
2020/12/22 11:25:39;;;;;;;1.98;1.25;;;13.70;99.90;;;;;;5048817;28;20123;-68
2020/12/22 11:28:05;;;;;;;3.00;1.65;;;13.80;99.90;;;;;;5041094;28;20028;-69
2020/12/22 11:30:30;;;;;;;1.50;1.20;;;13.80;99.90;;;;;;5048603;28;20064;-68
2020/12/22 11:32:56;;;;;;;1.92;1.20;;;13.80;99.90;;;;;;5027627;28;20025;-68
2020/12/22 11:35:22;;;;;;;2.03;1.00;;;13.90;99.90;;;;;;5037232;28;20481;-68
2020/12/22 11:37:47;;;;;;;2.15;1.10;;;13.90;99.90;;;;;;5038951;28;20021;-69
2020/12/22 11:40:13;;;;;;;2.45;1.20;;;13.90;99.90;;;;;;5038466;28;20041;-69
2020/12/22 11:42:39;;;;;;;2.20;1.42;;;14.00;99.90;;;;;;5036121;28;20108;-69
2020/12/22 11:45:06;;;;;;;4.10;1.70;;;14.00;99.90;;;;;;5034402;28;20562;-69
2020/12/22 11:47:31;;;;;;;3.25;1.40;;;14.00;99.90;;;;;;5042429;28;20037;-69
2020/12/22 11:49:57;;;;;;;2.78;1.55;;;14.10;99.90;;;;;;5039187;28;20021;-68
2020/12/22 11:52:22;;;;;;;2.13;1.35;;;14.10;99.90;;;;;;5027959;28;20021;-69
2020/12/22 11:54:48;;;;;;;2.30;1.30;;;14.10;99.90;;;;;;5036120;28;20048;-69
2020/12/22 11:57:13;;;;;;;4.53;1.88;;;14.10;99.90;;;;;;5035561;28;20030;-69
2020/12/22 11:59:38;;;;;;;1.13;0.82;;;14.20;99.90;;;;;;5051279;28;20048;-70
2020/12/22 12:02:04;;;;;;;2.67;1.20;;;14.20;99.90;;;;;;5032687;28;20846;-68
2020/12/22 12:04:31;;;;;;;2.28;1.40;;;14.20;99.80;;;;;;5036482;28;20032;-67
2020/12/22 12:06:56;;;;;;;2.53;1.42;;;14.30;99.80;;;;;;5034115;28;20041;-67
2020/12/22 12:09:22;;;;;;;2.20;1.30;;;14.30;99.70;;;;;;5032558;28;20108;-67
2020/12/22 12:11:49;;;;;;;3.72;1.90;;;14.30;99.70;;;;;;5035645;28;20036;-67
2020/12/22 12:14:15;;;;;;;3.65;1.33;;;14.40;99.70;;;;;;5035291;28;20398;-68
2020/12/22 12:16:44;;;;;;;3.67;1.27;;;14.40;99.60;;;;;;5026557;28;20045;-68
2020/12/22 12:19:10;;;;;;;2.30;1.30;;;14.40;99.50;;;;;;5039737;28;20033;-68
2020/12/22 12:21:35;;;;;;;3.15;1.30;;;14.50;99.50;;;;;;5030889;28;20028;-68
2020/12/22 12:24:01;;;;;;;1.83;1.45;;;14.50;99.40;;;;;;5013769;28;20474;-68
2020/12/22 12:26:27;;;;;;;2.58;1.40;;;14.60;99.30;;;;;;5031145;28;20504;-69
2020/12/22 12:28:53;;;;;;;1.58;1.00;;;14.70;99.30;;;;;;5024197;28;20037;-69
2020/12/22 12:31:21;;;;;;;2.25;1.30;;;14.70;99.20;;;;;;5025329;28;20369;-70
2020/12/22 12:33:47;;;;;;;2.25;1.23;;;14.80;99.10;;;;;;5012925;28;20052;-69
2020/12/22 12:36:13;;;;;;;2.17;1.33;;;14.80;99.00;;;;;;5013149;28;20363;-69
2020/12/22 12:38:40;;;;;;;2.63;1.30;;;14.80;99.00;;;;;;5036973;28;20062;-69
2020/12/22 12:41:08;;;;;;;3.08;1.08;;;14.90;98.90;;;;;;5031616;28;20035;-69